Time;durP1;ratioP1;P1;durP2;ratioP2;P2;SDS_P1;SDS_P2;PMS_P1;PMS_P2;Temp;Humidity;BMP_temperature;BMP_pressure;BME280_temperature;BME280_humidity;BME280_pressure;Samples;Min_cycle;Max_cycle;Signal;HPM_P1;HPM_P2
2023/11/19 00:00:36;;;;;;;;;;;;;;;6.46;100.00;96475.09;5120552;28;19975;-74
2023/11/19 00:03:02;;;;;;;;;;;;;;;6.49;100.00;96470.31;5103767;28;19973;-74
2023/11/19 00:05:28;;;;;;;;;;;;;;;6.51;100.00;96457.13;5103350;28;19965;-74
2023/11/19 00:07:54;;;;;;;;;;;;;;;6.53;100.00;96460.34;5121191;28;20127;-74
2023/11/19 00:10:20;;;;;;;;;;;;;;;6.56;100.00;96453.94;5104077;28;19950;-74
2023/11/19 00:12:47;;;;;;;;;;;;;;;6.55;100.00;96440.09;5120737;28;19941;-74
2023/11/19 00:15:13;;;;;;;;;;;;;;;6.57;100.00;96430.25;5104462;28;19936;-74
2023/11/19 00:17:40;;;;;;;;;;;;;;;6.60;100.00;96436.91;5103336;28;19941;-81
2023/11/19 00:20:06;;;;;;;;;;;;;;;6.61;100.00;96448.94;5119317;28;19960;-79
2023/11/19 00:22:32;;;;;;;;;;;;;;;6.62;100.00;96435.72;5103826;28;20115;-79
2023/11/19 00:24:59;;;;;;;;;;;;;;;6.64;100.00;96444.16;5119871;28;19947;-78
2023/11/19 00:27:25;;;;;;;;;;;;;;;6.64;100.00;96449.38;5103123;28;19940;-79
2023/11/19 00:29:51;;;;;;;;;;;;;;;6.67;100.00;96448.16;5120185;28;19939;-80
2023/11/19 00:32:17;;;;;;;;;;;;;;;6.67;100.00;96443.75;5103139;28;20130;-79
2023/11/19 00:34:44;;;;;;;;;;;;;;;6.69;100.00;96430.53;5120111;28;20127;-78
2023/11/19 00:37:10;;;;;;;;;;;;;;;6.68;100.00;96429.75;5085974;28;19970;-74
2023/11/19 00:39:36;;;;;;;;;;;;;;;6.69;100.00;96428.72;5103124;28;19990;-81
2023/11/19 00:42:02;;;;;;;;;;;;;;;6.70;100.00;96419.13;5120681;28;19941;-80
2023/11/19 00:44:27;;;;;;;;;;;;;;;6.73;100.00;96417.94;5103936;28;19952;-79
2023/11/19 00:46:53;;;;;;;;;;;;;;;6.74;100.00;96417.75;5104960;28;19943;-79
2023/11/19 00:49:20;;;;;;;;;;;;;;;6.76;100.00;96409.72;5104526;28;19931;-79
2023/11/19 00:51:45;;;;;;;;;;;;;;;6.78;100.00;96415.53;5086063;28;19943;-80
2023/11/19 00:54:11;;;;;;;;;;;;;;;6.79;100.00;96407.53;5103956;28;19936;-75
2023/11/19 00:56:37;;;;;;;;;;;;;;;6.80;100.00;96401.31;5104392;28;19981;-80
2023/11/19 00:59:03;;;;;;;;;;;;;;;6.82;100.00;96395.91;5104043;28;19957;-79
2023/11/19 01:01:29;;;;;;;;;;;;;;;6.84;100.00;96399.13;5103994;28;19945;-79
2023/11/19 01:03:57;;;;;;;;;;;;;;;6.85;100.00;96405.94;5103631;28;20113;-78
2023/11/19 01:06:26;;;;;;;;;;;;;;;6.87;100.00;96406.56;5104706;28;20091;-79
2023/11/19 01:08:53;;;;;;;;;;;;;;;6.89;100.00;96407.97;5104162;28;20244;-79
2023/11/19 01:11:20;;;;;;;;;;;;;;;6.91;100.00;96413.00;5104550;28;19947;-79
2023/11/19 01:13:46;;;;;;;;;;;;;;;6.93;100.00;96403.19;5119704;28;19937;-72
2023/11/19 01:16:13;;;;;;;;;;;;;;;6.95;100.00;96401.19;5119566;28;19951;-83
2023/11/19 01:18:38;;;;;;;;;;;;;;;6.96;100.00;96387.13;5119631;28;19948;-83
2023/11/19 01:21:04;;;;;;;;;;;;;;;6.99;100.00;96397.19;5103295;28;19938;-83
2023/11/19 01:23:30;;;;;;;;;;;;;;;7.00;100.00;96390.97;5085790;28;19939;-83
2023/11/19 01:25:56;;;;;;;;;;;;;;;7.01;100.00;96379.50;5122584;28;19972;-83
2023/11/19 01:28:22;;;;;;;;;;;;;;;7.04;100.00;96383.56;5107646;28;20216;-84
2023/11/19 01:30:50;;;;;;;;;;;;;;;7.04;100.00;96371.31;5090174;28;19938;-75
2023/11/19 01:33:16;;;;;;;;;;;;;;;7.06;100.00;96368.50;5123356;28;20113;-75
2023/11/19 01:35:42;;;;;;;;;;;;;;;7.09;100.00;96373.31;5107440;28;19963;-78
2023/11/19 01:38:10;;;;;;;;;;;;;;;7.10;100.00;96374.94;5106520;28;20008;-78
2023/11/19 01:40:37;;;;;;;;;;;;;;;7.11;100.00;96374.72;5107706;28;20217;-78
2023/11/19 01:43:03;;;;;;;;;;;;;;;7.14;100.00;96370.94;5123754;28;19946;-78
2023/11/19 01:45:33;;;;;;;;;;;;;;;7.16;100.00;96368.13;5107224;28;19953;-78
2023/11/19 01:48:00;;;;;;;;;;;;;;;7.18;100.00;96376.53;5107286;28;19939;-78
2023/11/19 01:50:26;;;;;;;;;;;;;;;7.20;100.00;96364.94;5107933;28;19936;-76
2023/11/19 01:52:57;;;;;;;;;;;;;;;7.22;100.00;96377.75;5107720;28;19965;-74
2023/11/19 01:55:24;;;;;;;;;;;;;;;7.23;100.00;96372.34;5122889;28;19939;-74
2023/11/19 01:57:51;;;;;;;;;;;;;;;7.26;100.00;96373.75;5106973;28;19955;-74
2023/11/19 02:00:19;;;;;;;;;;;;;;;7.26;100.00;96366.72;5106593;28;19935;-73
2023/11/19 02:02:46;;;;;;;;;;;;;;;7.28;100.00;96369.94;5122883;28;19941;-73
2023/11/19 02:05:13;;;;;;;;;;;;;;;7.30;100.00;96354.09;5106881;28;19940;-73
2023/11/19 02:07:39;;;;;;;;;;;;;;;7.30;100.00;96351.50;5089672;28;20224;-78
2023/11/19 02:10:05;;;;;;;;;;;;;;;7.34;100.00;96357.13;5088738;28;19943;-77
2023/11/19 02:12:35;;;;;;;;;;;;;;;7.35;100.00;96359.53;5106364;28;19968;-74
2023/11/19 02:15:02;;;;;;;;;;;;;;;7.35;100.00;96359.53;5122605;28;19949;-74
2023/11/19 02:17:31;;;;;;;;;;;;;;;7.38;100.00;96356.53;5123134;28;19961;-74
2023/11/19 02:19:57;;;;;;;;;;;;;;;7.39;100.00;96352.91;5105434;28;20241;-74
2023/11/19 02:22:23;;;;;;;;;;;;;;;7.41;100.00;96357.91;5122426;28;19940;-73
2023/11/19 02:24:50;;;;;;;;;;;;;;;7.42;100.00;96354.31;5123161;28;19945;-73
2023/11/19 02:27:24;;;;;;;;;;;;;;;7.43;100.00;96348.91;5088408;28;19945;-76
2023/11/19 02:29:50;;;;;;;;;;;;;;;7.44;100.00;96342.69;5107332;28;20225;-74
2023/11/19 02:32:16;;;;;;;;;;;;;;;7.45;100.00;96338.25;5123009;28;19936;-74
2023/11/19 02:34:42;;;;;;;;;;;;;;;7.46;100.00;96335.44;5105133;28;19944;-74
2023/11/19 02:37:08;;;;;;;;;;;;;;;7.47;100.00;96337.03;5104600;28;19973;-74
2023/11/19 02:39:34;;;;;;;;;;;;;;;7.48;100.00;96340.47;5122688;28;19947;-74
2023/11/19 02:42:00;;;;;;;;;;;;;;;7.50;100.00;96341.88;5122375;28;19938;-74
2023/11/19 02:44:28;;;;;;;;;;;;;;;7.52;100.00;96345.09;5105022;28;19961;-76
2023/11/19 02:46:54;;;;;;;;;;;;;;;7.55;100.00;96348.31;5106935;28;20084;-74
2023/11/19 02:49:20;;;;;;;;;;;;;;;7.56;100.00;96352.50;5105573;28;19952;-74
2023/11/19 02:51:46;;;;;;;;;;;;;;;7.58;100.00;96347.88;5121839;28;20139;-74
2023/11/19 02:54:12;;;;;;;;;;;;;;;7.60;100.00;96336.25;5088575;28;19947;-75
2023/11/19 02:56:42;;;;;;;;;;;;;;;7.61;100.00;96339.66;5104777;28;20127;-74
2023/11/19 02:59:15;;;;;;;;;;;;;;;7.63;100.00;96338.47;5121700;28;19944;-76
2023/11/19 03:01:43;;;;;;;;;;;;;;;7.70;100.00;96336.63;5088537;28;19950;-75
2023/11/19 03:04:11;;;;;;;;;;;;;;;7.75;100.00;96340.44;5105756;28;20138;-85
2023/11/19 03:06:38;;;;;;;;;;;;;;;7.75;100.00;96353.50;5122315;28;19948;-74
2023/11/19 03:09:09;;;;;;;;;;;;;;;7.76;100.00;96345.47;5121593;28;19944;-74
2023/11/19 03:11:35;;;;;;;;;;;;;;;7.75;100.00;96341.28;5122323;28;19946;-74
2023/11/19 03:14:03;;;;;;;;;;;;;;;7.77;100.00;96352.31;5105604;28;19950;-73
2023/11/19 03:16:28;;;;;;;;;;;;;;;7.76;100.00;96348.09;5122112;28;20133;-74
2023/11/19 03:18:54;;;;;;;;;;;;;;;7.78;100.00;96363.56;5121368;28;19940;-73
2023/11/19 03:21:27;;;;;;;;;;;;;;;7.78;100.00;96353.13;5088235;28;20099;-73
2023/11/19 03:23:53;;;;;;;;;;;;;;;7.79;100.00;96352.91;5104239;28;19944;-74
2023/11/19 03:26:19;;;;;;;;;;;;;;;7.79;100.00;96352.09;5105319;28;19934;-72
2023/11/19 03:28:44;;;;;;;;;;;;;;;7.81;100.00;96344.88;5087963;28;19965;-72
2023/11/19 03:31:10;;;;;;;;;;;;;;;7.82;100.00;96341.25;5121051;28;20267;-71
2023/11/19 03:33:37;;;;;;;;;;;;;;;7.82;100.00;96349.88;5120946;28;19946;-72
2023/11/19 03:36:03;;;;;;;;;;;;;;;7.83;100.00;96338.47;5103982;28;19948;-72
2023/11/19 03:38:29;;;;;;;;;;;;;;;7.83;100.00;96346.28;5105438;28;20044;-71
2023/11/19 03:40:54;;;;;;;;;;;;;;;7.84;100.00;96341.88;5105381;28;19949;-73
2023/11/19 03:43:20;;;;;;;;;;;;;;;7.85;100.00;96340.84;5105025;28;19998;-73
2023/11/19 03:45:46;;;;;;;;;;;;;;;7.86;100.00;96343.25;5121446;28;19945;-73
2023/11/19 03:48:12;;;;;;;;;;;;;;;7.87;100.00;96344.88;5120038;28;20135;-75
2023/11/19 03:50:38;;;;;;;;;;;;;;;7.88;100.00;96341.25;5120770;28;20111;-73
2023/11/19 03:53:04;;;;;;;;;;;;;;;7.89;100.00;96347.25;5104871;28;19932;-74
2023/11/19 03:55:31;;;;;;;;;;;;;;;7.90;100.00;96354.09;5121369;28;19943;-74
2023/11/19 03:57:57;;;;;;;;;;;;;;;7.90;100.00;96351.50;5105001;28;19959;-74
2023/11/19 04:00:22;;;;;;;;;;;;;;;7.92;100.00;96341.66;5087446;28;20135;-80
2023/11/19 04:02:48;;;;;;;;;;;;;;;7.93;100.00;96348.47;5087249;28;20261;-76
2023/11/19 04:05:14;;;;;;;;;;;;;;;7.94;100.00;96347.47;5104612;28;19938;-77
2023/11/19 04:07:40;;;;;;;;;;;;;;;7.95;100.00;96341.22;5104878;28;19981;-76
2023/11/19 04:10:06;;;;;;;;;;;;;;;7.95;100.00;96330.78;5104505;28;20278;-76
2023/11/19 04:12:32;;;;;;;;;;;;;;;7.97;100.00;96331.38;5104761;28;19959;-77
2023/11/19 04:14:58;;;;;;;;;;;;;;;7.97;100.00;96344.44;5105003;28;19941;-76
2023/11/19 04:17:24;;;;;;;;;;;;;;;7.98;100.00;96340.84;5120821;28;20284;-74
2023/11/19 04:19:50;;;;;;;;;;;;;;;8.00;100.00;96345.84;5105011;28;20115;-74
2023/11/19 04:22:16;;;;;;;;;;;;;;;8.00;100.00;96338.84;5104195;28;19947;-73
2023/11/19 04:24:44;;;;;;;;;;;;;;;8.01;100.00;96347.47;5120975;28;20222;-74
2023/11/19 04:27:10;;;;;;;;;;;;;;;8.03;100.00;96351.47;5103147;28;19945;-73
2023/11/19 04:29:36;;;;;;;;;;;;;;;8.03;100.00;96364.53;5120086;28;19940;-74
2023/11/19 04:32:01;;;;;;;;;;;;;;;8.03;100.00;96359.31;5105047;28;19945;-74
2023/11/19 04:34:27;;;;;;;;;;;;;;;8.04;100.00;96353.09;5119933;28;19947;-74
2023/11/19 04:36:54;;;;;;;;;;;;;;;8.05;100.00;96362.50;5103978;28;19950;-73
2023/11/19 04:39:19;;;;;;;;;;;;;;;8.07;100.00;96359.72;5120749;28;19942;-75
2023/11/19 04:41:47;;;;;;;;;;;;;;;8.09;100.00;96352.47;5120041;28;20218;-76
2023/11/19 04:44:12;;;;;;;;;;;;;;;8.08;100.00;96362.13;5104117;28;19952;-76
2023/11/19 04:46:38;;;;;;;;;;;;;;;8.09;100.00;96355.88;5104070;28;19945;-76
2023/11/19 04:49:04;;;;;;;;;;;;;;;8.11;100.00;96358.28;5104057;28;19943;-76
2023/11/19 04:51:30;;;;;;;;;;;;;;;8.12;100.00;96355.47;5104831;28;19989;-75
2023/11/19 04:53:56;;;;;;;;;;;;;;;8.13;100.00;96354.47;5104065;28;19938;-71
2023/11/19 04:56:23;;;;;;;;;;;;;;;8.14;100.00;96360.47;5103562;28;20001;-73
2023/11/19 04:58:48;;;;;;;;;;;;;;;8.15;100.00;96359.50;5104117;28;19938;-78
2023/11/19 05:01:17;;;;;;;;;;;;;;;8.14;100.00;96356.06;5108208;28;20027;-78
2023/11/19 05:03:43;;;;;;;;;;;;;;;8.15;100.00;96359.50;5108112;28;19942;-78
2023/11/19 05:06:09;;;;;;;;;;;;;;;8.13;100.00;96356.28;5106972;28;19928;-79
2023/11/19 05:08:35;;;;;;;;;;;;;;;8.16;100.00;96360.28;5124419;28;20082;-78
2023/11/19 05:11:01;;;;;;;;;;;;;;;8.16;100.00;96353.25;5108515;28;19940;-78
2023/11/19 05:13:27;;;;;;;;;;;;;;;8.19;100.00;96352.03;5124624;28;19974;-79
2023/11/19 05:15:53;;;;;;;;;;;;;;;8.26;100.00;96347.59;5107976;28;20205;-76
2023/11/19 05:18:19;;;;;;;;;;;;;;;8.30;100.00;96339.16;5124167;28;19955;-76
2023/11/19 05:20:45;;;;;;;;;;;;;;;8.36;100.00;96337.53;5106922;28;19952;-76
2023/11/19 05:23:11;;;;;;;;;;;;;;;8.43;100.00;96334.91;5108520;28;19940;-75
2023/11/19 05:25:37;;;;;;;;;;;;;;;8.49;100.00;96340.13;5107927;28;19956;-76
2023/11/19 05:28:02;;;;;;;;;;;;;;;8.54;100.00;96336.88;5107621;28;19961;-76
2023/11/19 05:30:28;;;;;;;;;;;;;;;8.60;100.00;96348.31;5124208;28;20131;-78
2023/11/19 05:32:54;;;;;;;;;;;;;;;8.64;100.00;96349.50;5108059;28;20268;-74
2023/11/19 05:35:20;;;;;;;;;;;;;;;8.68;100.00;96351.50;5123394;28;19953;-71
2023/11/19 05:37:46;;;;;;;;;;;;;;;8.71;100.00;96348.50;5122949;28;20162;-71
2023/11/19 05:40:15;;;;;;;;;;;;;;;8.73;100.00;96337.81;5124032;28;19942;-72
2023/11/19 05:42:41;;;;;;;;;;;;;;;8.73;100.00;96333.41;5107578;28;20133;-71
2023/11/19 05:45:07;;;;;;;;;;;;;;;8.75;100.00;96341.00;5106117;28;19952;-71
2023/11/19 05:47:33;;;;;;;;;;;;;;;8.77;100.00;96341.59;5123905;28;20130;-72
2023/11/19 05:49:59;;;;;;;;;;;;;;;8.78;100.00;96343.22;5108052;28;19953;-78
2023/11/19 05:52:25;;;;;;;;;;;;;;;8.81;100.00;96347.22;5106610;28;19947;-74
2023/11/19 05:54:54;;;;;;;;;;;;;;;8.82;100.00;96346.19;5123040;28;19938;-75
2023/11/19 05:57:23;;;;;;;;;;;;;;;8.84;100.00;96344.19;5123436;28;19963;-74
2023/11/19 05:59:49;;;;;;;;;;;;;;;8.85;100.00;96340.56;5089741;28;19945;-75
2023/11/19 06:02:16;;;;;;;;;;;;;;;8.89;100.00;96349.59;5106989;28;19953;-74
2023/11/19 06:04:44;;;;;;;;;;;;;;;8.90;100.00;96354.63;5106504;28;19944;-75
2023/11/19 06:07:09;;;;;;;;;;;;;;;8.94;100.00;96353.19;5106871;28;19940;-74
2023/11/19 06:09:35;;;;;;;;;;;;;;;8.96;100.00;96352.19;5089477;28;20147;-75
2023/11/19 06:12:06;;;;;;;;;;;;;;;8.97;100.00;96357.19;5105016;28;20253;-74
2023/11/19 06:14:32;;;;;;;;;;;;;;;8.99;100.00;96352.56;5123436;28;19935;-74
2023/11/19 06:16:57;;;;;;;;;;;;;;;9.00;100.00;96351.53;5123307;28;19979;-74
2023/11/19 06:19:24;;;;;;;;;;;;;;;9.01;100.00;96350.53;5122566;28;19943;-74
2023/11/19 06:21:50;;;;;;;;;;;;;;;9.02;100.00;96352.13;5122841;28;19945;-75
2023/11/19 06:24:16;;;;;;;;;;;;;;;9.03;100.00;96348.53;5122561;28;20133;-75
2023/11/19 06:26:43;;;;;;;;;;;;;;;9.05;100.00;96343.06;5122244;28;19943;-74
2023/11/19 06:29:08;;;;;;;;;;;;;;;9.06;100.00;96350.72;5088497;28;19948;-80
2023/11/19 06:31:34;;;;;;;;;;;;;;;9.06;100.00;96347.28;5105294;28;20209;-80
2023/11/19 06:34:00;;;;;;;;;;;;;;;9.07;100.00;96348.88;5105914;28;19987;-80
2023/11/19 06:36:26;;;;;;;;;;;;;;;9.08;100.00;96351.28;5122157;28;19944;-81
2023/11/19 06:38:52;;;;;;;;;;;;;;;9.08;100.00;96361.75;5122050;28;19979;-81
2023/11/19 06:41:18;;;;;;;;;;;;;;;9.10;100.00;96359.75;5122044;28;19941;-81
2023/11/19 06:43:44;;;;;;;;;;;;;;;9.08;100.00;96364.38;5088799;28;20240;-76
2023/11/19 06:46:16;;;;;;;;;;;;;;;9.10;100.00;96372.81;5122792;28;19942;-73
2023/11/19 06:48:44;;;;;;;;;;;;;;;9.11;100.00;96376.22;5122089;28;19948;-71
2023/11/19 06:51:10;;;;;;;;;;;;;;;9.12;100.00;96378.66;5106849;28;19941;-71
2023/11/19 06:53:36;;;;;;;;;;;;;;;9.12;100.00;96373.41;5106464;28;19942;-71
2023/11/19 06:56:06;;;;;;;;;;;;;;;9.12;100.00;96368.19;5106440;28;19988;-71
2023/11/19 06:58:32;;;;;;;;;;;;;;;9.14;100.00;96363.53;5122439;28;19962;-73
2023/11/19 07:00:58;;;;;;;;;;;;;;;9.16;100.00;96363.34;5122412;28;19941;-72
2023/11/19 07:03:24;;;;;;;;;;;;;;;9.16;100.00;96350.25;5106040;28;19955;-73
2023/11/19 07:05:50;;;;;;;;;;;;;;;9.18;100.00;96363.13;5122447;28;19952;-79
2023/11/19 07:08:16;;;;;;;;;;;;;;;9.20;100.00;96367.13;5105259;28;20116;-79
2023/11/19 07:10:42;;;;;;;;;;;;;;;9.21;100.00;96367.94;5121437;28;20134;-80
2023/11/19 07:13:08;;;;;;;;;;;;;;;9.20;100.00;96361.91;5106365;28;19986;-80
2023/11/19 07:15:34;;;;;;;;;;;;;;;9.20;100.00;96359.28;5088242;28;19948;-80
2023/11/19 07:18:00;;;;;;;;;;;;;;;9.21;100.00;96357.47;5121325;28;19994;-81
2023/11/19 07:20:26;;;;;;;;;;;;;;;9.21;100.00;96355.66;5122067;28;19943;-74
2023/11/19 07:22:52;;;;;;;;;;;;;;;9.22;100.00;96361.66;5103211;28;19945;-74
2023/11/19 07:25:18;;;;;;;;;;;;;;;9.25;100.00;96361.25;5105632;28;19943;-80
2023/11/19 07:27:44;;;;;;;;;;;;;;;9.27;100.00;96372.31;5121211;28;19943;-78
2023/11/19 07:30:10;;;;;;;;;;;;;;;9.27;100.00;96374.94;5105592;28;20251;-78
2023/11/19 07:32:38;;;;;;;;;;;;;;;9.29;100.00;96375.53;5121065;28;19938;-82
2023/11/19 07:35:05;;;;;;;;;;;;;;;9.30;100.00;96380.56;5121018;28;20109;-78
2023/11/19 07:37:31;;;;;;;;;;;;;;;9.31;100.00;96383.97;5103681;28;19971;-80
2023/11/19 07:39:57;;;;;;;;;;;;;;;9.32;100.00;96386.38;5103844;28;19950;-80
2023/11/19 07:42:23;;;;;;;;;;;;;;;9.35;100.00;96387.78;5104628;28;19975;-73
2023/11/19 07:44:49;;;;;;;;;;;;;;;9.38;100.00;96397.00;5105142;28;19966;-73
2023/11/19 07:47:15;;;;;;;;;;;;;;;9.38;100.00;96400.41;5121545;28;19943;-74
2023/11/19 07:49:43;;;;;;;;;;;;;;;9.39;100.00;96398.63;5120742;28;19943;-73
2023/11/19 07:52:09;;;;;;;;;;;;;;;9.40;100.00;96387.94;5086876;28;19936;-73
2023/11/19 07:54:35;;;;;;;;;;;;;;;9.42;100.00;96398.19;5104855;28;20249;-73
2023/11/19 07:57:01;;;;;;;;;;;;;;;9.43;100.00;96391.94;5086627;28;19969;-73
2023/11/19 07:59:27;;;;;;;;;;;;;;;9.45;100.00;96403.00;5104461;28;19947;-74
2023/11/19 08:01:52;;;;;;;;;;;;;;;9.46;100.00;96394.16;5104084;28;20228;-81
2023/11/19 08:04:19;;;;;;;;;;;;;;;9.47;100.00;96395.72;5103554;28;20109;-81
2023/11/19 08:06:45;;;;;;;;;;;;;;;9.47;100.00;96393.94;5105212;28;20209;-81
2023/11/19 08:09:13;;;;;;;;;;;;;;;9.49;100.00;96394.53;5104600;28;19956;-81
2023/11/19 08:11:40;;;;;;;;;;;;;;;9.50;100.00;96396.13;5103472;28;19942;-81
2023/11/19 08:14:06;;;;;;;;;;;;;;;9.52;100.00;96388.84;5121190;28;20048;-80
2023/11/19 08:16:32;;;;;;;;;;;;;;;9.54;100.00;96393.88;5121004;28;19949;-74
2023/11/19 08:18:58;;;;;;;;;;;;;;;9.55;100.00;96388.44;5120991;28;19956;-75
2023/11/19 08:21:24;;;;;;;;;;;;;;;9.58;100.00;96402.13;5104422;28;19944;-74
2023/11/19 08:23:49;;;;;;;;;;;;;;;9.60;100.00;96389.63;5120221;28;20246;-73
2023/11/19 08:26:16;;;;;;;;;;;;;;;9.60;100.00;96393.03;5120744;28;20013;-74
2023/11/19 08:28:41;;;;;;;;;;;;;;;9.62;100.00;96395.47;5120150;28;19941;-74
2023/11/19 08:31:07;;;;;;;;;;;;;;;9.63;100.00;96392.59;5104268;28;19931;-73
2023/11/19 08:33:33;;;;;;;;;;;;;;;9.67;100.00;96403.47;5120276;28;19969;-74
2023/11/19 08:36:00;;;;;;;;;;;;;;;9.72;100.00;96407.06;5104263;28;19944;-73
2023/11/19 08:38:26;;;;;;;;;;;;;;;9.75;100.00;96396.13;5119793;28;20298;-74
2023/11/19 08:40:52;;;;;;;;;;;;;;;9.79;100.00;96407.00;5120785;28;19964;-74
2023/11/19 08:43:18;;;;;;;;;;;;;;;9.86;100.00;96404.31;5103671;28;19945;-74
2023/11/19 08:45:43;;;;;;;;;;;;;;;9.91;100.00;96399.22;5119846;28;20252;-74
2023/11/19 08:48:09;;;;;;;;;;;;;;;10.07;100.00;96408.38;5104099;28;19936;-76
2023/11/19 08:50:35;;;;;;;;;;;;;;;10.39;100.00;96406.47;5104475;28;19947;-76
2023/11/19 08:53:01;;;;;;;;;;;;;;;10.71;100.00;96404.53;5120637;28;19938;-83
2023/11/19 08:55:27;;;;;;;;;;;;;;;10.81;100.00;96400.59;5104025;28;19980;-76
2023/11/19 08:57:53;;;;;;;;;;;;;;;10.84;100.00;96395.72;5103607;28;20269;-79
2023/11/19 09:00:18;;;;;;;;;;;;;;;10.96;100.00;96398.38;5119881;28;20009;-79
2023/11/19 09:02:44;;;;;;;;;;;;;;;11.05;100.00;96397.06;5120548;28;19947;-78
2023/11/19 09:05:10;;;;;;;;;;;;;;;11.10;100.00;96389.31;5120348;28;20219;-78
2023/11/19 09:07:36;;;;;;;;;;;;;;;11.10;100.00;96399.81;5085837;28;20224;-79
2023/11/19 09:10:04;;;;;;;;;;;;;;;11.09;100.00;96398.22;5119690;28;20017;-79
2023/11/19 09:12:30;;;;;;;;;;;;;;;11.16;100.00;96401.56;5103277;28;19944;-80
2023/11/19 09:14:56;;;;;;;;;;;;;;;11.42;100.00;96407.44;5102706;28;19944;-74
2023/11/19 09:17:22;;;;;;;;;;;;;;;11.69;100.00;96402.63;5119568;28;19964;-75
2023/11/19 09:19:48;;;;;;;;;;;;;;;12.06;100.00;96393.78;5120385;28;20111;-74
2023/11/19 09:22:14;;;;;;;;;;;;;;;12.39;100.00;96398.47;5119584;28;19943;-75
2023/11/19 09:24:40;;;;;;;;;;;;;;;12.61;100.00;96403.13;5104478;28;19940;-74
2023/11/19 09:27:06;;;;;;;;;;;;;;;12.61;100.00;96408.41;5102685;28;20157;-74
2023/11/19 09:29:32;;;;;;;;;;;;;;;12.45;100.00;96412.50;5103700;28;20229;-82
2023/11/19 09:31:58;;;;;;;;;;;;;;;12.33;100.00;96405.44;5103274;28;20223;-81
2023/11/19 09:34:24;;;;;;;;;;;;;;;12.26;100.00;96419.72;5103834;28;19947;-79
2023/11/19 09:36:50;;;;;;;;;;;;;;;12.19;100.00;96420.63;5119315;28;19965;-79
2023/11/19 09:39:17;;;;;;;;;;;;;;;12.15;100.00;96430.00;5120068;28;20006;-79
2023/11/19 09:41:45;;;;;;;;;;;;;;;12.08;100.00;96424.06;5085590;28;19941;-79
2023/11/19 09:44:11;;;;;;;;;;;;;;;11.98;100.00;96429.09;5119465;28;19953;-79
2023/11/19 09:46:41;;;;;;;;;;;;;;;11.88;100.00;96413.88;5105940;28;19938;-79
2023/11/19 09:49:08;;;;;;;;;;;;;;;11.83;100.00;96421.63;5107277;28;19942;-77
2023/11/19 09:51:35;;;;;;;;;;;;;;;11.84;100.00;96417.94;5123901;28;19944;-83
2023/11/19 09:54:01;;;;;;;;;;;;;;;11.88;100.00;96413.03;5123800;28;19941;-83
2023/11/19 09:56:29;;;;;;;;;;;;;;;11.89;100.00;96412.84;5089914;28;19942;-82
2023/11/19 09:58:55;;;;;;;;;;;;;;;11.88;100.00;96410.41;5105859;28;19954;-83
2023/11/19 10:01:21;;;;;;;;;;;;;;;11.85;100.00;96400.38;5106558;28;19947;-81
2023/11/19 10:03:47;;;;;;;;;;;;;;;11.86;100.00;96400.13;5106577;28;20147;-80
2023/11/19 10:06:14;;;;;;;;;;;;;;;11.89;100.00;96391.84;5122857;28;20114;-73
2023/11/19 10:08:41;;;;;;;;;;;;;;;11.91;100.00;96402.13;5106516;28;19939;-72
2023/11/19 10:11:07;;;;;;;;;;;;;;;11.88;100.00;96411.25;5107692;28;19946;-76
2023/11/19 10:13:39;;;;;;;;;;;;;;;11.88;100.00;96405.16;5106802;28;19997;-76
2023/11/19 10:16:08;;;;;;;;;;;;;;;11.85;100.00;96406.41;5105612;28;20260;-76
2023/11/19 10:18:38;;;;;;;;;;;;;;;11.82;100.00;96398.97;5123234;28;19958;-76
2023/11/19 10:21:05;;;;;;;;;;;;;;;11.78;100.00;96409.16;5105502;28;19958;-75
2023/11/19 10:23:30;;;;;;;;;;;;;;;11.79;100.00;96394.97;5105494;28;20213;-76
2023/11/19 10:26:02;;;;;;;;;;;;;;;11.88;100.00;96387.59;5107085;28;19972;-74
2023/11/19 10:28:38;;;;;;;;;;;;;;;12.05;100.00;96390.34;5123240;28;19948;-79
2023/11/19 10:31:04;;;;;;;;;;;;;;;12.18;100.00;96400.66;5107063;28;19965;-78
2023/11/19 10:33:30;;;;;;;;;;;;;;;12.40;100.00;96394.81;5106440;28;19946;-79
2023/11/19 10:35:57;;;;;;;;;;;;;;;12.71;100.00;96377.81;5105299;28;19944;-78
2023/11/19 10:38:24;;;;;;;;;;;;;;;13.07;100.00;96354.03;5121925;28;19979;-78
2023/11/19 10:40:54;;;;;;;;;;;;;;;13.34;100.00;96368.22;5122931;28;19952;-79
2023/11/19 10:43:22;;;;;;;;;;;;;;;13.59;100.00;96364.44;5105830;28;19944;-80
2023/11/19 10:45:49;;;;;;;;;;;;;;;13.83;100.00;96349.25;5105757;28;19970;-81
2023/11/19 10:48:14;;;;;;;;;;;;;;;14.10;100.00;96345.97;5104936;28;19956;-81
2023/11/19 10:50:41;;;;;;;;;;;;;;;14.31;100.00;96342.53;5105695;28;19941;-82
2023/11/19 10:53:10;;;;;;;;;;;;;;;14.35;100.00;96333.09;5104847;28;19953;-81
2023/11/19 10:55:40;;;;;;;;;;;;;;;14.47;100.00;96334.81;5104725;28;19942;-82
2023/11/19 10:58:07;;;;;;;;;;;;;;;14.62;100.00;96342.97;5106627;28;20146;-81
2023/11/19 11:00:37;;;;;;;;;;;;;;;14.72;100.00;96326.44;5104686;28;19939;-80
2023/11/19 11:03:10;;;;;;;;;;;;;;;14.70;100.00;96326.72;5088593;28;19944;-74
2023/11/19 11:05:38;;;;;;;;;;;;;;;14.78;100.00;96330.72;5122285;28;20236;-75
2023/11/19 11:08:06;;;;;;;;;;;;;;;14.92;100.00;96320.59;5122400;28;20223;-73
2023/11/19 11:10:35;;;;;;;;;;;;;;;15.11;100.00;96337.69;5121514;28;20138;-74
2023/11/19 11:13:03;;;;;;;;;;;;;;;15.28;100.00;96323.59;5122267;28;19948;-74
2023/11/19 11:15:30;;;;;;;;;;;;;;;15.29;100.00;96304.84;5105127;28;19945;-74
2023/11/19 11:17:59;;;;;;;;;;;;;;;15.44;100.00;96346.47;5122137;28;20002;-74
2023/11/19 11:20:25;;;;;;;;;;;;;;;15.45;100.00;96324.25;5121361;28;19948;-83
2023/11/19 11:23:04;;;;;;;;;;;;;;;15.38;100.00;96311.25;5105459;28;19942;-74
2023/11/19 11:25:38;;;;;;;;;;;;;;;15.33;100.00;96337.66;5122176;28;20128;-76
2023/11/19 11:28:09;;;;;;;;;;;;;;;15.16;100.00;96343.03;5106189;28;19937;-76
2023/11/19 11:30:43;;;;;;;;;;;;;;;14.95;100.00;96338.56;5105877;28;19944;-76
2023/11/19 11:33:15;;;;;;;;;;;;;;;14.64;100.00;96348.81;5121718;28;19943;-76
2023/11/19 11:35:49;;;;;;;;;;;;;;;14.40;100.00;96354.28;5106329;28;19945;-76
2023/11/19 11:38:21;;;;;;;;;;;;;;;14.39;100.00;96341.34;5105240;28;20155;-74
2023/11/19 11:41:06;;;;;;;;;;;;;;;14.41;100.00;96345.31;5105547;28;19948;-78
2023/11/19 11:43:46;;;;;;;;;;;;;;;14.46;100.00;96365.69;5121021;28;20291;-76
2023/11/19 11:46:36;;;;;;;;;;;;;;;14.38;100.00;96342.38;5104620;28;19948;-76
2023/11/19 11:49:06;;;;;;;;;;;;;;;14.17;100.00;96336.84;5113446;28;19954;-76
2023/11/19 11:51:44;;;;;;;;;;;;;;;14.09;100.00;96341.72;5103736;28;20006;-76
2023/11/19 11:54:10;;;;;;;;;;;;;;;14.10;100.00;96352.03;5087612;28;19964;-76
2023/11/19 11:56:37;;;;;;;;;;;;;;;14.15;100.00;96356.56;5103598;28;19945;-77
2023/11/19 11:59:02;;;;;;;;;;;;;;;14.25;100.00;96363.81;5120547;28;19962;-80
2023/11/19 12:01:29;;;;;;;;;;;;;;;14.39;100.00;96338.69;5103695;28;19941;-74
2023/11/19 12:03:55;;;;;;;;;;;;;;;14.51;100.00;96344.66;5105295;28;19940;-74
2023/11/19 12:06:22;;;;;;;;;;;;;;;14.47;100.00;96311.91;5121249;28;19952;-75
2023/11/19 12:08:48;;;;;;;;;;;;;;;14.51;100.00;96336.75;5119841;28;20245;-75
2023/11/19 12:11:16;;;;;;;;;;;;;;;14.57;100.00;96317.31;5104552;28;19934;-73
2023/11/19 12:14:02;;;;;;;;;;;;;;;14.66;100.00;96340.63;5105070;28;20215;-73
2023/11/19 12:16:29;;;;;;;;;;;;;;;14.51;100.00;96318.28;5105247;28;19950;-76
2023/11/19 12:18:56;;;;;;;;;;;;;;;14.47;100.00;96308.44;5104965;28;19952;-78
2023/11/19 12:21:31;;;;;;;;;;;;;;;14.46;100.00;96318.19;5104441;28;19954;-78
2023/11/19 12:24:07;;;;;;;;;;;;;;;14.42;100.00;96309.19;5120944;28;19941;-79
2023/11/19 12:26:34;;;;;;;;;;;;;;;14.38;100.00;96298.34;5120946;28;19945;-77
2023/11/19 12:29:00;;;;;;;;;;;;;;;14.44;100.00;96324.75;5120226;28;19937;-78
2023/11/19 12:31:26;;;;;;;;;;;;;;;14.46;100.00;96312.91;5104782;28;19969;-76
2023/11/19 12:33:53;;;;;;;;;;;;;;;14.49;100.00;96314.25;5120799;28;19978;-75
2023/11/19 12:36:19;;;;;;;;;;;;;;;14.53;100.00;96300.34;5103819;28;20228;-78
2023/11/19 12:38:45;;;;;;;;;;;;;;;14.63;100.00;96301.53;5104099;28;19974;-74
2023/11/19 12:41:12;;;;;;;;;;;;;;;14.63;100.00;96299.69;5104665;28;19950;-74